createdAt,value
2023-02-22T00:02:10.894Z,194.98
2023-02-22T00:04:39.795Z,193.57
2023-02-22T00:07:08.109Z,199.45
2023-02-22T00:09:35.647Z,204.85
2023-02-22T00:12:03.125Z,196.40
2023-02-22T00:14:30.563Z,193.65
2023-02-22T00:16:59.671Z,190.75
2023-02-22T00:19:30.132Z,188.13
2023-02-22T00:21:58.103Z,191.23
2023-02-22T00:24:25.843Z,199.45
2023-02-22T00:26:57.640Z,184.23
2023-02-22T00:29:25.609Z,188.43
2023-02-22T00:31:53.231Z,183.38
2023-02-22T00:34:21.065Z,184.18
2023-02-22T00:36:49.591Z,186.63
2023-02-22T00:39:17.627Z,171.23
2023-02-22T00:41:45.372Z,191.35
2023-02-22T00:44:12.908Z,177.68
2023-02-22T00:46:40.474Z,181.93
2023-02-22T00:49:07.932Z,182.82
2023-02-22T00:51:35.352Z,174.52
2023-02-22T00:54:03.228Z,180.93
2023-02-22T00:56:32.304Z,184.23
2023-02-22T00:59:03.149Z,176.50
2023-02-22T01:01:31.221Z,177.50
2023-02-22T01:03:59.165Z,171.68
2023-02-22T01:06:27.099Z,172.98
2023-02-22T01:08:54.574Z,184.88
2023-02-22T01:11:22.443Z,173.63
2023-02-22T01:13:49.837Z,173.38
2023-02-22T01:16:17.262Z,184.00
2023-02-22T01:18:44.797Z,173.35
2023-02-22T01:21:12.272Z,171.18
2023-02-22T01:23:41.085Z,174.95
2023-02-22T01:26:08.497Z,186.43
2023-02-22T01:28:37.286Z,171.40
2023-02-22T01:31:05.314Z,168.82
2023-02-22T01:33:34.069Z,172.25
2023-02-22T01:36:01.599Z,177.57
2023-02-22T01:38:29.080Z,168.98
2023-02-22T01:40:56.591Z,175.32
2023-02-22T01:43:31.709Z,162.57
2023-02-22T01:46:22.124Z,167.60
2023-02-22T01:48:55.288Z,161.85
2023-02-22T01:51:32.171Z,164.38
2023-02-22T01:54:05.888Z,165.68
2023-02-22T01:56:38.406Z,166.07
2023-02-22T01:59:10.714Z,168.15
2023-02-22T02:01:44.737Z,162.05
2023-02-22T02:04:26.517Z,169.98
2023-02-22T02:07:01.227Z,172.43
2023-02-22T02:09:34.313Z,167.32
2023-02-22T02:12:05.066Z,163.68
2023-02-22T02:14:33.042Z,165.18
2023-02-22T02:17:07.122Z,169.52
2023-02-22T02:19:53.318Z,163.90
2023-02-22T02:22:29.658Z,152.38
2023-02-22T02:25:19.071Z,163.45
2023-02-22T02:28:11.388Z,168.90
2023-02-22T02:30:52.081Z,157.18
2023-02-22T02:33:35.724Z,171.88
2023-02-22T02:36:07.674Z,167.57
2023-02-22T02:38:41.895Z,160.75
2023-02-22T02:41:34.307Z,166.82
2023-02-22T02:44:22.850Z,171.10
2023-02-22T02:46:59.344Z,160.90
2023-02-22T02:49:43.871Z,165.38
2023-02-22T02:52:13.579Z,164.00
2023-02-22T02:54:42.258Z,172.77
2023-02-22T02:57:09.996Z,165.55
2023-02-22T02:59:38.847Z,162.43
2023-02-22T03:02:42.820Z,156.23
2023-02-22T03:05:39.213Z,153.23
2023-02-22T03:08:27.781Z,150.27
2023-02-22T03:11:07.070Z,152.25
2023-02-22T03:13:46.643Z,146.55
2023-02-22T03:16:29.747Z,155.55
2023-02-22T03:19:08.250Z,149.88
2023-02-22T03:22:05.890Z,152.18
2023-02-22T03:24:55.864Z,154.35
2023-02-22T03:27:31.340Z,152.27
2023-02-22T03:30:05.730Z,148.68
2023-02-22T03:32:37.627Z,152.15
2023-02-22T03:35:11.126Z,147.93
2023-02-22T03:37:44.001Z,152.30
2023-02-22T03:40:18.189Z,147.85
2023-02-22T03:42:50.934Z,144.80
2023-02-22T03:45:21.316Z,152.40
2023-02-22T03:47:53.342Z,151.77
2023-02-22T03:50:26.391Z,157.80
2023-02-22T03:52:53.923Z,162.80
2023-02-22T03:55:29.091Z,168.73
2023-02-22T03:58:06.720Z,162.30
2023-02-22T04:00:35.539Z,164.20
2023-02-22T04:03:04.242Z,158.55
2023-02-22T04:05:31.811Z,170.50
2023-02-22T04:07:59.445Z,161.90
2023-02-22T04:10:28.101Z,165.55
2023-02-22T04:12:55.612Z,165.30
2023-02-22T04:15:24.738Z,170.30
2023-02-22T04:17:56.598Z,165.60
2023-02-22T04:20:25.628Z,169.23
2023-02-22T04:22:58.822Z,177.57
2023-02-22T04:25:26.924Z,162.52
2023-02-22T04:27:54.446Z,172.73
2023-02-22T04:30:33.072Z,180.20
2023-02-22T04:33:01.576Z,177.50
2023-02-22T04:35:28.943Z,180.52
2023-02-22T04:37:56.370Z,164.32
2023-02-22T04:40:24.192Z,170.98
2023-02-22T04:42:51.600Z,172.90
2023-02-22T04:45:19.095Z,172.55
2023-02-22T04:47:46.913Z,181.98
2023-02-22T04:50:16.489Z,187.52
2023-02-22T04:52:43.998Z,176.85
2023-02-22T04:55:12.085Z,189.60
2023-02-22T04:57:39.651Z,179.80
2023-02-22T05:00:10.167Z,187.88
2023-02-22T05:02:41.397Z,180.15
2023-02-22T05:05:08.954Z,184.43
2023-02-22T05:07:36.400Z,180.75
2023-02-22T05:10:04.167Z,171.65
2023-02-22T05:12:31.556Z,178.95
2023-02-22T05:14:58.982Z,168.80
2023-02-22T05:17:26.404Z,183.90
2023-02-22T05:19:53.979Z,183.70
2023-02-22T05:22:21.449Z,175.85
2023-02-22T05:24:48.852Z,178.35
2023-02-22T05:27:16.335Z,175.98
2023-02-22T05:29:43.894Z,183.70
2023-02-22T05:32:12.630Z,181.90
2023-02-22T05:34:40.164Z,183.20
2023-02-22T05:37:07.585Z,180.85
2023-02-22T05:39:35.026Z,176.60
2023-02-22T05:42:02.437Z,187.27
2023-02-22T05:44:29.834Z,184.85
2023-02-22T05:46:57.238Z,182.73
2023-02-22T05:49:24.766Z,188.95
2023-02-22T05:51:52.450Z,176.18
2023-02-22T05:54:19.829Z,187.02
2023-02-22T05:56:48.023Z,168.38
2023-02-22T05:59:15.632Z,185.30
2023-02-22T06:01:43.073Z,182.35
2023-02-22T06:04:10.477Z,192.68
2023-02-22T06:06:37.908Z,183.25
2023-02-22T06:09:05.327Z,192.43
2023-02-22T06:11:32.742Z,191.20
2023-02-22T06:14:00.131Z,178.98
2023-02-22T06:16:27.535Z,178.00
2023-02-22T06:18:54.928Z,184.18
2023-02-22T06:21:22.417Z,186.93
2023-02-22T06:23:49.787Z,185.48
2023-02-22T06:26:18.532Z,181.45
2023-02-22T06:28:47.052Z,180.02
2023-02-22T06:31:15.190Z,172.80
2023-02-22T06:33:42.836Z,182.30
2023-02-22T06:36:10.774Z,187.38
2023-02-22T06:38:38.261Z,180.50
2023-02-22T06:41:05.765Z,185.50
2023-02-22T06:43:33.161Z,188.25
2023-02-22T06:46:00.648Z,184.07
2023-02-22T06:48:28.128Z,198.88
2023-02-22T06:50:55.587Z,208.27
2023-02-22T06:53:23.108Z,205.65
2023-02-22T06:55:54.624Z,216.32
2023-02-22T06:58:22.475Z,225.25
2023-02-22T07:00:49.834Z,216.02
2023-02-22T07:03:17.531Z,223.23
2023-02-22T07:05:45.212Z,215.77
2023-02-22T07:08:13.050Z,212.60
2023-02-22T07:10:40.737Z,202.27
2023-02-22T07:13:09.317Z,190.52
2023-02-22T07:15:36.832Z,184.80
2023-02-22T07:18:04.459Z,208.48
2023-02-22T07:20:32.266Z,189.70
2023-02-22T07:23:00.407Z,191.00
2023-02-22T07:25:27.860Z,202.10
2023-02-22T07:27:55.257Z,202.68
2023-02-22T07:30:25.835Z,197.10
2023-02-22T07:32:55.074Z,200.90
2023-02-22T07:35:26.386Z,195.98
2023-02-22T07:37:55.948Z,189.88
2023-02-22T07:40:25.444Z,189.05
2023-02-22T07:42:57.859Z,190.38
2023-02-22T07:45:31.810Z,180.23
2023-02-22T07:48:00.946Z,182.02
2023-02-22T07:50:31.178Z,188.00
2023-02-22T07:53:00.854Z,184.73
2023-02-22T07:55:30.300Z,184.15
2023-02-22T07:58:00.546Z,181.82
2023-02-22T08:00:39.692Z,189.05
2023-02-22T08:03:13.296Z,184.35
2023-02-22T08:05:45.972Z,182.15
2023-02-22T08:08:17.666Z,197.32
2023-02-22T08:10:46.570Z,200.82
2023-02-22T08:13:14.084Z,189.18
2023-02-22T08:15:44.013Z,194.18
2023-02-22T08:18:15.137Z,180.68
2023-02-22T08:20:44.498Z,186.43
2023-02-22T08:23:13.331Z,189.50
2023-02-22T08:25:41.114Z,189.05
2023-02-22T08:28:11.627Z,190.32
2023-02-22T08:30:40.841Z,183.25
2023-02-22T08:33:08.458Z,178.35
2023-02-22T08:35:36.461Z,184.48
2023-02-22T08:38:06.393Z,178.02
2023-02-22T08:40:36.122Z,183.18
2023-02-22T08:43:04.654Z,174.57
2023-02-22T08:45:32.079Z,181.30
2023-02-22T08:47:59.692Z,172.98
2023-02-22T08:50:29.700Z,174.60
2023-02-22T08:52:59.503Z,178.82
2023-02-22T08:55:31.436Z,182.10
2023-02-22T08:58:01.445Z,183.23
2023-02-22T09:00:33.104Z,185.90
2023-02-22T09:03:01.846Z,172.82
2023-02-22T09:05:31.439Z,163.50
2023-02-22T09:08:00.344Z,179.88
2023-02-22T09:10:31.304Z,172.98
2023-02-22T09:13:01.062Z,177.98
2023-02-22T09:15:29.109Z,169.75
2023-02-22T09:17:56.882Z,167.57
2023-02-22T09:20:25.677Z,166.00
2023-02-22T09:22:54.105Z,173.82
2023-02-22T09:25:22.146Z,163.38
2023-02-22T09:27:54.104Z,155.20
2023-02-22T09:30:26.277Z,159.20
2023-02-22T09:32:59.977Z,150.38
2023-02-22T09:35:27.793Z,162.75
2023-02-22T09:38:02.329Z,153.57
2023-02-22T09:40:32.825Z,162.88
2023-02-22T09:43:31.063Z,174.40
2023-02-22T09:46:02.703Z,165.73
2023-02-22T09:48:34.532Z,175.65
2023-02-22T09:51:08.506Z,169.32
2023-02-22T09:53:43.970Z,164.18
2023-02-22T09:56:14.671Z,157.93
2023-02-22T09:58:46.065Z,152.07
2023-02-22T10:01:28.796Z,139.88
2023-02-22T10:04:20.223Z,126.50
2023-02-22T10:07:06.768Z,127.50
2023-02-22T10:09:39.672Z,123.28
2023-02-22T10:12:13.985Z,134.80
2023-02-22T10:14:44.459Z,132.18
2023-02-22T10:17:33.428Z,136.00
2023-02-22T10:20:08.580Z,129.57
2023-02-22T10:23:04.102Z,127.45
2023-02-22T10:25:36.672Z,146.70
2023-02-22T10:28:13.484Z,153.32
2023-02-22T10:30:46.377Z,163.57
2023-02-22T10:33:21.985Z,161.05
2023-02-22T10:35:52.675Z,149.13
2023-02-22T10:38:25.163Z,145.52
2023-02-22T10:41:10.532Z,134.90
2023-02-22T10:43:39.202Z,126.60
2023-02-22T10:46:09.717Z,130.48
2023-02-22T10:48:40.252Z,114.88
2023-02-22T10:51:09.732Z,123.70
2023-02-22T10:53:38.546Z,122.85
2023-02-22T10:56:06.219Z,131.43
2023-02-22T10:59:04.275Z,128.00
2023-02-22T11:01:31.679Z,126.28
2023-02-22T11:04:23.535Z,141.65
2023-02-22T11:07:29.412Z,124.90
2023-02-22T11:10:05.001Z,124.10
2023-02-22T11:12:38.769Z,133.88
2023-02-22T11:15:19.731Z,134.57
2023-02-22T11:17:49.188Z,134.82
2023-02-22T11:20:28.670Z,119.60
2023-02-22T11:22:59.927Z,122.10
2023-02-22T11:25:37.256Z,127.00
2023-02-22T11:28:31.294Z,134.25
2023-02-22T11:31:23.566Z,125.13
2023-02-22T11:33:58.085Z,128.55
2023-02-22T11:36:41.082Z,126.38
2023-02-22T11:39:28.928Z,146.13
2023-02-22T11:41:57.018Z,118.93
2023-02-22T11:44:30.752Z,122.70
2023-02-22T11:47:06.955Z,120.43
2023-02-22T11:49:38.231Z,123.72
2023-02-22T11:52:26.144Z,120.90
2023-02-22T11:55:42.412Z,119.47
2023-02-22T11:58:31.140Z,121.30
2023-02-22T12:01:21.928Z,127.18
2023-02-22T12:04:21.848Z,125.75
2023-02-22T12:06:52.044Z,127.40
2023-02-22T12:09:38.328Z,121.10
2023-02-22T12:12:48.736Z,118.72
2023-02-22T12:15:29.115Z,128.88
2023-02-22T12:18:11.421Z,121.38
2023-02-22T12:20:45.534Z,130.68
2023-02-22T12:23:15.214Z,127.15
2023-02-22T12:25:58.687Z,126.82
2023-02-22T12:28:39.743Z,125.10
2023-02-22T12:31:18.460Z,130.38
2023-02-22T12:34:04.906Z,129.30
2023-02-22T12:36:40.231Z,135.15
2023-02-22T12:39:40.948Z,126.00
2023-02-22T12:42:20.102Z,125.75
2023-02-22T12:45:16.797Z,134.88
2023-02-22T12:47:53.366Z,125.53
2023-02-22T12:50:26.309Z,134.10
2023-02-22T12:53:00.133Z,129.05
2023-02-22T12:55:37.101Z,118.20
2023-02-22T12:58:18.291Z,124.72
2023-02-22T13:00:57.831Z,121.15
2023-02-22T13:03:28.441Z,131.13
2023-02-22T13:06:12.593Z,125.10
2023-02-22T13:08:58.922Z,138.38
2023-02-22T13:11:32.406Z,130.68
2023-02-22T13:14:02.498Z,133.13
2023-02-22T13:16:56.153Z,122.40
2023-02-22T13:20:03.229Z,133.07
2023-02-22T13:23:06.878Z,129.32
2023-02-22T13:25:48.255Z,126.60
2023-02-22T13:28:36.813Z,125.00
2023-02-22T13:31:22.215Z,122.35
2023-02-22T13:34:06.258Z,126.65
2023-02-22T13:36:45.381Z,124.60
2023-02-22T13:39:31.591Z,137.63
2023-02-22T13:42:31.485Z,123.30
2023-02-22T13:45:36.581Z,119.85
2023-02-22T13:48:30.296Z,132.55
2023-02-22T13:51:09.166Z,120.15
2023-02-22T13:54:00.055Z,123.45
2023-02-22T13:56:28.023Z,118.90
2023-02-22T13:58:58.972Z,126.75
2023-02-22T14:01:47.604Z,126.75
2023-02-22T14:04:21.229Z,123.00
2023-02-22T14:06:49.062Z,122.80
2023-02-22T14:09:37.533Z,128.68
2023-02-22T14:12:05.148Z,114.25
2023-02-22T14:14:32.528Z,121.32
2023-02-22T14:17:28.775Z,129.13
2023-02-22T14:20:14.935Z,125.90
2023-02-22T14:22:45.134Z,119.97
2023-02-22T14:25:31.525Z,123.10
2023-02-22T14:28:00.001Z,117.45
2023-02-22T14:30:33.699Z,123.85
2023-02-22T14:33:01.312Z,118.75
2023-02-22T14:35:49.586Z,121.22
2023-02-22T14:38:20.377Z,125.13
2023-02-22T14:40:50.222Z,119.45
2023-02-22T14:43:22.538Z,117.85
2023-02-22T14:48:27.864Z,118.15
2023-02-22T14:51:11.824Z,126.03
2023-02-22T14:54:08.180Z,129.43
2023-02-22T14:56:44.388Z,135.38
2023-02-22T14:59:21.248Z,123.47
2023-02-22T15:02:05.745Z,118.03
2023-02-22T15:04:33.414Z,123.68
2023-02-22T15:07:19.332Z,120.72
2023-02-22T15:09:48.389Z,128.85
2023-02-22T15:12:30.850Z,117.32
2023-02-22T15:17:41.509Z,123.75
2023-02-22T15:20:10.822Z,120.88
2023-02-22T15:22:38.356Z,124.50
2023-02-22T15:25:08.263Z,131.02
2023-02-22T15:27:37.510Z,121.00
2023-02-22T15:30:26.497Z,129.02
2023-02-22T15:33:04.219Z,123.80
2023-02-22T15:35:33.563Z,128.52
2023-02-22T15:38:13.412Z,125.32
2023-02-22T15:40:45.542Z,121.38
2023-02-22T15:43:19.773Z,123.90
2023-02-22T15:45:47.633Z,122.60
2023-02-22T15:48:15.905Z,122.97
2023-02-22T15:51:06.965Z,123.65
2023-02-22T15:53:40.850Z,121.60
2023-02-22T15:56:13.816Z,129.93
2023-02-22T15:58:42.479Z,126.05
2023-02-22T16:01:18.725Z,124.32
2023-02-22T16:03:51.906Z,131.52
2023-02-22T16:06:28.633Z,143.68
2023-02-22T16:08:58.919Z,131.27
2023-02-22T16:11:32.137Z,133.35
2023-02-22T16:14:23.363Z,150.43
2023-02-22T16:16:51.308Z,134.27
2023-02-22T16:19:42.762Z,141.50
2023-02-22T16:22:26.958Z,136.45
2023-02-22T16:25:11.991Z,135.05
2023-02-22T16:27:47.566Z,135.98
2023-02-22T16:30:24.480Z,136.48
2023-02-22T16:32:57.308Z,136.40
2023-02-22T16:35:28.930Z,135.57
2023-02-22T16:38:00.542Z,138.82
2023-02-22T16:40:39.640Z,135.70
2023-02-22T16:43:17.891Z,144.88
2023-02-22T16:45:45.640Z,146.77
2023-02-22T16:48:22.975Z,146.93
2023-02-22T16:50:52.274Z,148.63
2023-02-22T16:53:22.462Z,147.77
2023-02-22T16:55:57.563Z,135.27
2023-02-22T16:58:29.329Z,137.75
2023-02-22T17:00:57.754Z,148.23
2023-02-22T17:03:26.632Z,143.75
2023-02-22T17:05:54.159Z,144.73
2023-02-22T17:08:22.209Z,142.75
2023-02-22T17:10:51.734Z,153.55
2023-02-22T17:13:25.706Z,154.10
2023-02-22T17:15:55.037Z,149.70
2023-02-22T17:18:24.385Z,156.32
2023-02-22T17:20:53.053Z,150.32
2023-02-22T17:23:21.174Z,149.73
2023-02-22T17:25:53.928Z,150.23
2023-02-22T17:28:23.704Z,150.38
2023-02-22T17:30:52.655Z,170.48
2023-02-22T17:33:26.510Z,159.85
2023-02-22T17:35:55.633Z,165.23
2023-02-22T17:38:23.613Z,156.30
2023-02-22T17:40:54.874Z,153.27
2023-02-22T17:43:22.836Z,170.97
2023-02-22T17:45:50.485Z,168.02
2023-02-22T17:48:18.614Z,169.90
2023-02-22T17:50:47.893Z,161.02
2023-02-22T17:53:18.247Z,170.32
2023-02-22T17:55:45.663Z,166.85
2023-02-22T17:58:14.772Z,157.77
2023-02-22T18:00:46.105Z,179.60
2023-02-22T18:03:19.849Z,170.95
2023-02-22T18:05:49.853Z,171.20
2023-02-22T18:08:17.379Z,173.60
2023-02-22T18:10:45.969Z,172.85
2023-02-22T18:13:18.067Z,158.95
2023-02-22T18:15:46.726Z,156.32
2023-02-22T18:18:16.232Z,166.50
2023-02-22T18:20:46.441Z,162.95
2023-02-22T18:23:16.801Z,157.38
2023-02-22T18:26:08.992Z,161.55
2023-02-22T18:31:10.093Z,160.57
2023-02-22T18:33:37.672Z,157.77
2023-02-22T18:36:05.529Z,161.43
2023-02-22T18:38:35.756Z,162.18
2023-02-22T18:41:05.907Z,150.77
2023-02-22T18:43:36.813Z,157.63
2023-02-22T18:46:14.995Z,146.52
2023-02-22T18:48:42.491Z,163.02
2023-02-22T18:51:12.743Z,160.25
2023-02-22T18:53:46.650Z,147.50
2023-02-22T18:56:17.843Z,146.85
2023-02-22T18:58:45.476Z,158.73
2023-02-22T19:01:16.668Z,159.07
2023-02-22T19:03:47.260Z,140.05
2023-02-22T19:06:16.522Z,148.50
2023-02-22T19:08:45.784Z,149.25
2023-02-22T19:11:18.017Z,170.25
2023-02-22T19:16:22.021Z,164.43
2023-02-22T19:18:52.507Z,170.85
2023-02-22T19:21:20.721Z,154.52
2023-02-22T19:23:49.086Z,162.43
2023-02-22T19:26:24.036Z,137.80
2023-02-22T19:28:56.909Z,152.85
2023-02-22T19:31:30.296Z,161.00
2023-02-22T19:34:08.956Z,174.95
2023-02-22T19:36:46.818Z,189.10
2023-02-22T19:39:16.266Z,184.85
2023-02-22T19:41:43.950Z,169.68
2023-02-22T19:44:12.271Z,160.77
2023-02-22T19:46:40.315Z,157.25
2023-02-22T19:49:08.050Z,177.93
2023-02-22T19:51:35.588Z,175.05
2023-02-22T19:54:05.687Z,179.27
2023-02-22T19:56:35.494Z,183.30
2023-02-22T19:59:13.170Z,193.18
2023-02-22T20:01:44.431Z,184.55
2023-02-22T20:04:18.298Z,151.15
2023-02-22T20:06:46.924Z,157.98
2023-02-22T20:09:17.992Z,178.07
2023-02-22T20:11:47.152Z,160.32
2023-02-22T20:14:26.205Z,159.18
2023-02-22T20:16:55.093Z,162.23
2023-02-22T20:19:22.919Z,157.57
2023-02-22T20:21:52.346Z,162.60
2023-02-22T20:24:19.815Z,182.23
2023-02-22T20:26:47.572Z,195.07
2023-02-22T20:29:15.768Z,163.40
2023-02-22T20:31:44.029Z,181.73
2023-02-22T20:34:11.809Z,168.05
2023-02-22T20:36:41.454Z,154.32
2023-02-22T20:39:13.432Z,155.77
2023-02-22T20:41:43.390Z,150.48
2023-02-22T20:44:14.164Z,149.95
2023-02-22T20:46:42.925Z,166.68
2023-02-22T20:49:13.851Z,158.88
2023-02-22T20:51:41.997Z,159.40
2023-02-22T20:54:12.107Z,192.35
2023-02-22T20:56:42.431Z,183.05
2023-02-22T20:59:13.066Z,198.32
2023-02-22T21:01:40.870Z,191.63
2023-02-22T21:04:13.498Z,193.65
2023-02-22T21:06:41.590Z,196.95
2023-02-22T21:09:14.385Z,184.75
2023-02-22T21:11:42.858Z,190.13
2023-02-22T21:14:14.791Z,190.02
2023-02-22T21:16:42.259Z,161.23
2023-02-22T21:19:09.689Z,151.55
2023-02-22T21:21:37.072Z,149.60
2023-02-22T21:24:04.656Z,157.68
2023-02-22T21:26:34.139Z,154.93
2023-02-22T21:29:04.849Z,173.43
2023-02-22T21:31:34.156Z,163.05
2023-02-22T21:34:02.337Z,163.13
2023-02-22T21:36:30.193Z,168.43
2023-02-22T21:39:24.635Z,174.25
2023-02-22T21:41:52.534Z,181.23
2023-02-22T21:44:20.365Z,184.63
2023-02-22T21:46:50.757Z,178.30
2023-02-22T21:49:22.344Z,159.82
2023-02-22T21:51:51.654Z,182.65
2023-02-22T21:54:19.657Z,169.52
2023-02-22T21:56:47.884Z,156.23
2023-02-22T21:59:20.634Z,161.70
2023-02-22T22:01:50.655Z,165.57
2023-02-22T22:04:21.056Z,186.48
2023-02-22T22:06:53.769Z,192.00
2023-02-22T22:09:23.595Z,172.30
2023-02-22T22:11:54.716Z,179.73
2023-02-22T22:14:23.622Z,176.63
2023-02-22T22:16:53.770Z,188.23
2023-02-22T22:19:21.474Z,186.40
2023-02-22T22:21:51.828Z,188.52
2023-02-22T22:24:21.366Z,188.38
2023-02-22T22:26:56.005Z,165.07
2023-02-22T22:29:26.583Z,166.13
2023-02-22T22:31:54.621Z,161.30
2023-02-22T22:34:24.337Z,181.10
2023-02-22T22:36:51.878Z,192.23
2023-02-22T22:39:21.046Z,191.32
2023-02-22T22:41:48.748Z,169.82
2023-02-22T22:44:22.139Z,165.98
2023-02-22T22:46:53.633Z,182.25
2023-02-22T22:49:23.349Z,174.60
2023-02-22T22:51:51.147Z,177.48
2023-02-22T22:54:18.637Z,187.60
2023-02-22T22:56:46.505Z,176.63
2023-02-22T22:59:14.048Z,179.57
2023-02-22T23:01:46.590Z,189.00
2023-02-22T23:04:16.755Z,164.45
2023-02-22T23:06:51.924Z,153.13
2023-02-22T23:09:30.328Z,145.18
2023-02-22T23:12:08.815Z,156.48
2023-02-22T23:14:44.087Z,149.88
2023-02-22T23:17:30.902Z,146.32
2023-02-22T23:19:58.573Z,168.85
2023-02-22T23:22:27.446Z,166.30
2023-02-22T23:24:54.839Z,167.20
2023-02-22T23:27:23.733Z,182.20
2023-02-22T23:29:52.491Z,166.10
2023-02-22T23:32:20.148Z,185.10
2023-02-22T23:34:49.650Z,174.48
2023-02-22T23:37:20.609Z,178.50
2023-02-22T23:39:48.885Z,177.90
2023-02-22T23:42:16.887Z,168.02
2023-02-22T23:44:47.402Z,186.90
2023-02-22T23:47:16.308Z,170.52
2023-02-22T23:49:49.304Z,166.48
2023-02-22T23:52:24.091Z,166.85
2023-02-22T23:54:53.920Z,181.68
2023-02-22T23:57:21.719Z,177.27
2023-02-22T23:59:51.410Z,170.65
